Time;durP1;ratioP1;P1;durP2;ratioP2;P2;SDS_P1;SDS_P2;PMS_P1;PMS_P2;Temp;Humidity;BMP_temperature;BMP_pressure;BME280_temperature;BME280_humidity;BME280_pressure;Samples;Min_cycle;Max_cycle;Signal;HPM_P1;HPM_P2
2022/09/05 00:02:12;;;;;;;4.63;1.35;;;17.60;62.90;;;;;;4985915;28;20060;-76
2022/09/05 00:05:01;;;;;;;1.83;1.20;;;17.60;64.00;;;;;;4972535;28;20376;-77
2022/09/05 00:07:29;;;;;;;1.77;1.10;;;17.60;63.40;;;;;;4990096;28;20058;-76
2022/09/05 00:10:17;;;;;;;1.63;1.33;;;17.50;62.90;;;;;;4993556;28;20038;-77
2022/09/05 00:12:43;;;;;;;1.45;1.23;;;17.50;63.20;;;;;;4975956;28;20135;-76
2022/09/05 00:15:22;;;;;;;1.75;1.08;;;17.50;63.30;;;;;;4982572;28;20054;-76
2022/09/05 00:18:17;;;;;;;1.45;1.35;;;17.40;63.80;;;;;;4972639;28;20041;-76
2022/09/05 00:21:04;;;;;;;3.20;1.40;;;17.40;63.90;;;;;;4996486;28;20054;-76
2022/09/05 00:23:33;;;;;;;1.30;1.20;;;17.30;63.70;;;;;;4983087;28;20042;-76
2022/09/05 00:26:08;;;;;;;1.30;1.20;;;17.30;63.80;;;;;;4984609;28;20049;-77
2022/09/05 00:29:01;;;;;;;1.30;1.20;;;17.30;64.00;;;;;;4987468;28;20061;-76
2022/09/05 00:31:45;;;;;;;1.58;1.25;;;17.30;64.40;;;;;;5002822;28;20031;-76
2022/09/05 00:34:13;;;;;;;1.30;1.20;;;17.20;64.70;;;;;;5016171;28;20061;-77
2022/09/05 00:36:46;;;;;;;1.40;1.30;;;17.20;64.20;;;;;;5023252;28;20097;-76
2022/09/05 00:39:27;;;;;;;1.75;1.20;;;17.10;64.50;;;;;;5004472;28;20048;-76
2022/09/05 00:41:55;;;;;;;1.58;1.48;;;17.10;64.70;;;;;;4958892;28;20038;-76
2022/09/05 00:44:23;;;;;;;1.65;1.20;;;17.10;64.60;;;;;;4991563;28;20105;-76
2022/09/05 00:47:17;;;;;;;3.60;1.27;;;17.00;64.60;;;;;;4984202;28;20038;-76
2022/09/05 00:49:57;;;;;;;1.85;1.10;;;17.00;65.30;;;;;;4996868;28;20054;-76
2022/09/05 00:52:29;;;;;;;2.30;1.35;;;17.00;64.80;;;;;;5003953;28;20049;-76
2022/09/05 00:55:23;;;;;;;1.20;1.10;;;16.90;65.00;;;;;;4997312;28;21771;-76
2022/09/05 00:58:00;;;;;;;3.25;1.50;;;16.90;65.40;;;;;;5000109;28;20039;-76
2022/09/05 01:01:03;;;;;;;1.80;1.63;;;16.90;65.60;;;;;;4966623;28;20107;-76
2022/09/05 01:03:41;;;;;;;1.65;1.40;;;16.90;65.60;;;;;;4990688;28;20063;-76
2022/09/05 01:06:35;;;;;;;2.45;1.60;;;16.80;65.50;;;;;;5013714;28;20027;-76
2022/09/05 01:09:10;;;;;;;1.30;1.20;;;16.80;65.60;;;;;;4974885;28;20053;-76
2022/09/05 01:11:56;;;;;;;1.70;1.38;;;16.80;65.50;;;;;;5015395;28;20033;-76
2022/09/05 01:14:52;;;;;;;2.33;1.50;;;16.70;65.80;;;;;;5000557;28;20031;-76
2022/09/05 01:17:36;;;;;;;2.05;1.50;;;16.70;66.10;;;;;;5008098;28;20222;-76
2022/09/05 01:20:27;;;;;;;1.50;1.40;;;16.70;66.40;;;;;;4996879;28;20046;-75
2022/09/05 01:23:15;;;;;;;2.05;1.38;;;16.60;66.40;;;;;;4967305;28;20029;-76
2022/09/05 01:26:05;;;;;;;1.15;1.05;;;16.60;66.10;;;;;;5023269;28;20459;-76
2022/09/05 01:28:49;;;;;;;1.60;1.50;;;16.60;66.40;;;;;;5023086;28;20045;-77
2022/09/05 01:31:17;;;;;;;1.20;1.10;;;16.60;66.10;;;;;;4996286;28;20046;-76
2022/09/05 01:34:03;;;;;;;2.03;1.55;;;16.50;66.40;;;;;;5010009;28;20504;-76
2022/09/05 01:36:52;;;;;;;1.40;1.30;;;16.50;66.90;;;;;;4994220;28;20034;-76
2022/09/05 01:39:31;;;;;;;1.70;1.60;;;16.50;67.00;;;;;;4997803;28;20180;-75
2022/09/05 01:42:16;;;;;;;2.75;1.42;;;16.50;66.60;;;;;;4981696;28;20092;-76
2022/09/05 01:45:06;;;;;;;2.45;1.52;;;16.40;66.70;;;;;;4984876;28;20116;-76
2022/09/05 01:47:50;;;;;;;2.85;1.85;;;16.40;67.00;;;;;;4995624;28;20042;-76
2022/09/05 01:50:42;;;;;;;2.50;1.77;;;16.30;67.40;;;;;;4989538;28;20045;-77
2022/09/05 01:53:24;;;;;;;5.35;1.52;;;16.30;67.40;;;;;;4971864;28;20134;-76
2022/09/05 01:56:07;;;;;;;;;;;16.30;68.10;;;;;;4983854;28;20034;-76
2022/09/05 01:58:54;;;;;;;1.80;1.60;;;16.30;66.90;;;;;;4983738;28;19914;-76
2022/09/05 02:01:39;;;;;;;1.65;1.50;;;16.20;67.30;;;;;;5016373;28;20037;-75
2022/09/05 02:04:34;;;;;;;2.28;1.83;;;16.20;67.40;;;;;;4986428;28;20041;-76
2022/09/05 02:07:36;;;;;;;2.38;1.60;;;16.20;67.60;;;;;;5000473;28;20068;-76
2022/09/05 02:10:17;;;;;;;2.95;1.48;;;16.20;67.60;;;;;;4973988;28;21003;-77
2022/09/05 02:12:45;;;;;;;1.98;1.38;;;16.10;67.60;;;;;;5005079;28;20037;-76
2022/09/05 02:15:18;;;;;;;2.20;1.58;;;16.10;67.40;;;;;;5001932;28;20038;-75
2022/09/05 02:17:55;;;;;;;1.40;1.25;;;16.10;67.80;;;;;;4986771;28;21518;-75
2022/09/05 02:20:29;;;;;;;3.08;2.05;;;16.00;67.90;;;;;;4987543;28;20061;-76
2022/09/05 02:22:55;;;;;;;2.40;2.00;;;16.00;68.00;;;;;;5004473;28;20034;-76
2022/09/05 02:25:25;;;;;;;1.55;1.40;;;16.00;67.80;;;;;;5003117;28;20038;-75
2022/09/05 02:28:03;;;;;;;2.25;1.35;;;16.00;68.00;;;;;;5003717;28;20038;-76
2022/09/05 02:30:36;;;;;;;1.70;1.60;;;15.90;68.10;;;;;;4986143;28;20038;-75
2022/09/05 02:33:04;;;;;;;2.85;1.50;;;15.90;68.10;;;;;;4989601;28;20057;-76
2022/09/05 02:35:44;;;;;;;2.05;1.85;;;15.90;68.20;;;;;;5003539;28;20242;-76
2022/09/05 02:38:42;;;;;;;1.90;1.63;;;15.90;68.50;;;;;;4991071;28;20041;-76
2022/09/05 02:41:33;;;;;;;2.78;1.50;;;15.90;68.80;;;;;;5010231;28;20034;-76
2022/09/05 02:44:05;;;;;;;1.30;1.20;;;15.80;68.70;;;;;;5008535;28;20129;-75
2022/09/05 02:47:02;;;;;;;2.28;1.67;;;15.80;68.30;;;;;;5001193;28;20069;-77
2022/09/05 02:49:38;;;;;;;1.63;1.52;;;15.80;68.70;;;;;;4984382;28;20114;-76
2022/09/05 02:52:08;;;;;;;2.15;1.60;;;15.70;68.40;;;;;;4984897;28;20058;-77
2022/09/05 02:54:36;;;;;;;2.38;1.58;;;15.70;69.30;;;;;;4966175;28;20042;-75
2022/09/05 02:57:25;;;;;;;1.67;1.58;;;15.70;68.60;;;;;;5000103;28;20097;-76
2022/09/05 03:00:10;;;;;;;2.05;1.70;;;15.70;68.80;;;;;;4983276;28;20038;-76
2022/09/05 03:03:33;;;;;;;1.65;1.55;;;15.60;69.00;;;;;;4999184;28;20038;-75
2022/09/05 03:06:09;;;;;;;2.90;1.73;;;15.60;69.20;;;;;;4940834;28;20053;-76
2022/09/05 03:08:50;;;;;;;3.30;1.90;;;15.60;69.60;;;;;;4957769;28;20049;-75
2022/09/05 03:11:31;;;;;;;2.25;1.88;;;15.50;68.90;;;;;;4985587;28;20033;-75
2022/09/05 03:14:26;;;;;;;1.90;1.30;;;15.50;69.90;;;;;;4995732;28;20090;-75
2022/09/05 03:17:14;;;;;;;2.25;1.67;;;15.50;69.40;;;;;;4997409;28;20039;-75
2022/09/05 03:20:00;;;;;;;2.25;1.52;;;15.50;69.20;;;;;;4981040;28;20050;-76
2022/09/05 03:22:30;;;;;;;2.00;1.75;;;15.50;69.20;;;;;;4983139;28;20031;-76
2022/09/05 03:25:11;;;;;;;2.47;1.77;;;15.40;69.20;;;;;;4997635;28;20238;-75
2022/09/05 03:27:55;;;;;;;4.18;1.42;;;15.40;69.70;;;;;;4996492;28;20054;-76
2022/09/05 03:30:23;;;;;;;2.22;1.80;;;15.40;69.30;;;;;;5002130;28;20057;-75
2022/09/05 03:33:16;;;;;;;2.22;1.70;;;15.30;69.40;;;;;;4973298;28;20034;-76
2022/09/05 03:36:09;;;;;;;1.70;1.60;;;15.30;69.80;;;;;;4990529;28;20018;-75
2022/09/05 03:38:42;;;;;;;2.42;1.50;;;15.30;70.10;;;;;;5020164;28;20038;-76
2022/09/05 03:41:42;;;;;;;2.42;1.40;;;15.20;69.60;;;;;;5004697;28;20049;-75
2022/09/05 03:44:20;;;;;;;1.90;1.70;;;15.20;70.20;;;;;;4982224;28;20066;-75
2022/09/05 03:47:13;;;;;;;2.72;1.92;;;15.20;70.00;;;;;;4996217;28;20593;-75
2022/09/05 03:50:04;;;;;;;2.00;1.88;;;15.20;70.30;;;;;;5000872;28;20097;-75
2022/09/05 03:52:48;;;;;;;2.72;1.83;;;15.20;70.30;;;;;;4981290;28;20030;-76
2022/09/05 03:55:23;;;;;;;1.63;1.50;;;15.10;70.20;;;;;;4974009;28;20042;-75
2022/09/05 03:58:07;;;;;;;2.53;1.40;;;15.10;70.20;;;;;;4996546;28;20038;-75
2022/09/05 04:00:33;;;;;;;2.50;1.67;;;15.10;70.40;;;;;;4971365;28;20030;-75
2022/09/05 04:03:14;;;;;;;1.70;1.60;;;15.10;70.20;;;;;;4985431;28;20124;-75
2022/09/05 04:05:42;;;;;;;1.80;1.60;;;15.00;70.50;;;;;;5001543;28;20048;-75
2022/09/05 04:08:20;;;;;;;1.70;1.60;;;15.00;70.40;;;;;;4969863;28;20041;-74
2022/09/05 04:11:03;;;;;;;2.67;1.58;;;15.00;70.50;;;;;;4987499;28;20113;-75
2022/09/05 04:13:37;;;;;;;2.78;1.50;;;15.00;70.70;;;;;;4982005;28;20038;-75
2022/09/05 04:16:05;;;;;;;2.72;1.58;;;14.90;70.40;;;;;;4985068;28;20050;-75
2022/09/05 04:18:49;;;;;;;2.85;1.73;;;14.90;70.40;;;;;;5002101;28;20100;-74
2022/09/05 04:21:19;;;;;;;2.05;1.70;;;14.90;70.80;;;;;;4974073;28;20589;-75
2022/09/05 04:23:52;;;;;;;1.98;1.80;;;14.90;70.60;;;;;;4975277;28;20220;-75
2022/09/05 04:26:35;;;;;;;2.55;2.15;;;14.90;70.80;;;;;;5000798;28;20040;-75
2022/09/05 04:29:23;;;;;;;2.22;1.80;;;14.90;71.00;;;;;;5016524;28;20034;-75
2022/09/05 04:31:55;;;;;;;1.75;1.40;;;14.80;71.20;;;;;;5002003;28;20050;-75
2022/09/05 04:34:24;;;;;;;;;;;14.80;70.90;;;;;;4999757;28;20036;-75
2022/09/05 04:37:05;;;;;;;1.88;1.52;;;14.80;70.70;;;;;;5017814;28;19949;-75
2022/09/05 04:39:31;;;;;;;2.20;1.63;;;14.80;71.00;;;;;;4983305;28;20041;-76
2022/09/05 04:42:19;;;;;;;1.50;1.40;;;14.70;70.70;;;;;;4987723;28;20073;-75
2022/09/05 04:44:48;;;;;;;1.70;1.60;;;14.70;71.40;;;;;;4988534;28;20050;-75
2022/09/05 04:47:36;;;;;;;2.50;1.77;;;14.70;71.00;;;;;;5016138;28;20072;-75
2022/09/05 04:50:12;;;;;;;2.38;1.73;;;14.60;71.50;;;;;;5019451;28;20032;-75
2022/09/05 04:53:09;;;;;;;2.30;1.40;;;14.60;71.30;;;;;;4999281;28;20125;-76
2022/09/05 04:56:07;;;;;;;1.60;1.50;;;14.60;71.40;;;;;;5004651;28;20060;-75
2022/09/05 04:58:38;;;;;;;2.78;1.42;;;14.60;71.60;;;;;;4988745;28;20085;-75
2022/09/05 05:01:08;;;;;;;1.90;1.80;;;14.60;71.40;;;;;;4970105;28;20060;-76
2022/09/05 05:03:34;;;;;;;1.90;1.70;;;14.60;71.60;;;;;;4973201;28;20034;-75
2022/09/05 05:06:04;;;;;;;2.10;1.50;;;14.50;71.60;;;;;;5003475;28;20065;-76
2022/09/05 05:08:46;;;;;;;3.30;2.00;;;14.60;71.80;;;;;;4985117;28;20046;-75
2022/09/05 05:11:40;;;;;;;4.15;2.05;;;14.50;72.10;;;;;;4999389;28;20065;-75
2022/09/05 05:14:20;;;;;;;3.72;2.05;;;14.50;72.00;;;;;;4989922;28;20045;-76
2022/09/05 05:16:54;;;;;;;2.72;1.98;;;14.50;72.00;;;;;;4974055;28;20037;-75
2022/09/05 05:19:29;;;;;;;3.60;1.95;;;14.50;72.20;;;;;;4998925;28;20045;-75
2022/09/05 05:21:56;;;;;;;2.70;2.03;;;14.50;72.40;;;;;;4983160;28;20046;-75
2022/09/05 05:24:33;;;;;;;1.80;1.70;;;14.50;72.30;;;;;;4981826;28;20033;-75
2022/09/05 05:27:15;;;;;;;1.90;1.70;;;14.50;72.60;;;;;;4967757;28;20422;-75
2022/09/05 05:29:56;;;;;;;2.85;1.83;;;14.50;72.70;;;;;;4975614;28;20069;-75
2022/09/05 05:32:26;;;;;;;2.28;2.08;;;14.50;72.90;;;;;;5003203;28;20126;-75
2022/09/05 05:34:54;;;;;;;3.72;2.15;;;14.50;72.70;;;;;;4953993;28;20065;-77
2022/09/05 05:37:39;;;;;;;2.58;2.03;;;14.50;72.70;;;;;;4960098;28;20038;-76
2022/09/05 05:40:18;;;;;;;2.28;1.92;;;14.50;73.00;;;;;;4954182;28;20038;-76
2022/09/05 05:42:44;;;;;;;2.42;2.20;;;14.60;72.90;;;;;;4941468;28;20099;-76
2022/09/05 05:45:25;;;;;;;2.42;2.20;;;14.60;73.00;;;;;;4969217;28;20042;-75
2022/09/05 05:47:58;;;;;;;2.80;2.10;;;14.60;73.30;;;;;;4966924;28;20038;-74
2022/09/05 05:50:42;;;;;;;2.80;2.60;;;14.70;73.10;;;;;;4943306;28;20050;-76
2022/09/05 05:53:16;;;;;;;4.13;2.85;;;14.70;73.40;;;;;;4974376;28;20046;-76
2022/09/05 05:55:50;;;;;;;3.00;2.70;;;14.70;73.50;;;;;;4973765;28;20125;-76
2022/09/05 05:58:30;;;;;;;3.95;2.92;;;14.80;73.80;;;;;;4963998;28;20051;-74
2022/09/05 06:01:21;;;;;;;4.07;2.60;;;14.80;74.10;;;;;;4992549;28;20049;-75
2022/09/05 06:04:02;;;;;;;3.33;2.38;;;14.80;73.90;;;;;;4994484;28;20041;-76
2022/09/05 06:06:55;;;;;;;6.50;3.10;;;14.90;74.10;;;;;;4986267;28;20045;-76
2022/09/05 06:09:50;;;;;;;6.03;2.95;;;15.00;74.20;;;;;;4999208;28;20038;-76
2022/09/05 06:12:22;;;;;;;7.05;2.83;;;15.00;74.50;;;;;;4995768;28;20038;-76
2022/09/05 06:15:11;;;;;;;10.52;3.58;;;15.00;74.00;;;;;;4970025;28;20030;-75
2022/09/05 06:17:52;;;;;;;8.43;3.15;;;15.10;74.20;;;;;;4941276;28;20061;-75
2022/09/05 06:20:41;;;;;;;4.88;2.88;;;15.20;74.30;;;;;;4994042;28;20580;-75
2022/09/05 06:23:26;;;;;;;6.38;2.95;;;15.30;75.20;;;;;;4979873;28;20109;-75
2022/09/05 06:26:11;;;;;;;4.32;2.80;;;15.40;75.40;;;;;;4997913;28;20556;-74
2022/09/05 06:28:54;;;;;;;5.20;2.92;;;15.50;74.70;;;;;;4993593;28;21893;-74
2022/09/05 06:31:35;;;;;;;5.78;2.97;;;15.60;75.60;;;;;;4972762;28;20037;-75
2022/09/05 06:34:38;;;;;;;3.58;3.25;;;15.60;74.90;;;;;;5001180;28;20091;-74
2022/09/05 06:37:39;;;;;;;5.60;3.28;;;15.70;75.80;;;;;;4987923;28;20046;-75
2022/09/05 06:40:10;;;;;;;4.38;2.95;;;15.90;75.70;;;;;;4994989;28;20118;-73
2022/09/05 06:42:42;;;;;;;5.80;2.63;;;15.90;75.00;;;;;;4993380;28;20037;-73
2022/09/05 06:45:26;;;;;;;;;;;16.00;75.20;;;;;;4988656;28;20168;-74
2022/09/05 06:47:53;;;;;;;4.55;2.90;;;16.10;74.60;;;;;;4983710;28;20020;-75
2022/09/05 06:50:19;;;;;;;3.58;2.95;;;16.30;74.40;;;;;;4965358;28;20057;-74
2022/09/05 06:52:51;;;;;;;4.93;2.78;;;16.40;74.50;;;;;;4973030;28;20049;-75
2022/09/05 06:55:24;;;;;;;;;;;16.50;74.60;;;;;;4995942;28;20037;-75
2022/09/05 06:57:58;;;;;;;3.38;2.80;;;16.60;74.20;;;;;;4980067;28;19921;-75
2022/09/05 07:00:28;;;;;;;7.38;3.95;;;16.80;74.40;;;;;;4957303;28;20050;-77
2022/09/05 07:02:58;;;;;;;15.02;4.47;;;16.90;74.00;;;;;;4972713;28;20100;-77
2022/09/05 07:05:30;;;;;;;5.60;3.53;;;17.10;73.80;;;;;;4986687;28;20518;-77
2022/09/05 07:08:25;;;;;;;7.60;4.43;;;17.20;73.60;;;;;;4984516;28;20038;-77
2022/09/05 07:10:57;;;;;;;4.28;3.40;;;17.40;74.00;;;;;;4972332;28;20085;-77
2022/09/05 07:13:26;;;;;;;;;;;17.40;74.10;;;;;;4983812;28;20042;-77
2022/09/05 07:16:13;;;;;;;8.27;3.45;;;17.60;73.00;;;;;;4976988;28;19917;-77
2022/09/05 07:19:01;;;;;;;7.93;3.05;;;17.70;72.90;;;;;;4991632;28;20026;-77
2022/09/05 07:21:51;;;;;;;5.00;3.33;;;17.90;73.10;;;;;;4968257;28;20046;-77
2022/09/05 07:24:18;;;;;;;5.45;3.00;;;18.00;72.80;;;;;;4973543;28;20142;-77
2022/09/05 07:26:45;;;;;;;12.27;3.55;;;18.10;72.20;;;;;;4966159;28;20141;-75
2022/09/05 07:29:13;;;;;;;6.13;2.95;;;18.30;72.20;;;;;;4940768;28;20031;-74
2022/09/05 07:31:39;;;;;;;8.90;3.42;;;18.50;71.90;;;;;;4956229;28;20034;-74
2022/09/05 07:34:16;;;;;;;5.40;2.75;;;18.60;71.80;;;;;;4923199;28;20035;-74
2022/09/05 07:36:45;;;;;;;6.03;2.92;;;18.80;71.60;;;;;;4958219;28;20066;-74
2022/09/05 07:39:14;;;;;;;5.20;2.58;;;19.00;71.20;;;;;;4942586;28;20182;-75
2022/09/05 07:41:41;;;;;;;3.20;2.83;;;19.10;71.00;;;;;;4961471;28;20112;-76
2022/09/05 07:44:13;;;;;;;4.72;3.13;;;19.30;70.70;;;;;;4944653;28;20054;-77
2022/09/05 07:46:39;;;;;;;7.00;2.85;;;19.40;70.40;;;;;;4949142;28;20072;-77
2022/09/05 07:49:13;;;;;;;3.75;2.97;;;19.50;70.00;;;;;;4985254;28;20046;-77
2022/09/05 07:51:47;;;;;;;4.43;2.65;;;19.70;69.80;;;;;;4959854;28;20121;-76
2022/09/05 07:54:27;;;;;;;3.67;2.50;;;19.80;69.50;;;;;;4964750;28;20327;-78
2022/09/05 07:57:02;;;;;;;5.70;2.63;;;19.90;69.10;;;;;;4977217;28;20057;-78
2022/09/05 07:59:29;;;;;;;5.43;2.80;;;20.10;68.80;;;;;;4952651;28;20874;-77
2022/09/05 08:01:54;;;;;;;3.45;2.15;;;20.30;68.50;;;;;;4955626;28;20038;-78
2022/09/05 08:04:31;;;;;;;8.07;2.22;;;20.50;68.20;;;;;;4985350;28;20030;-77
2022/09/05 08:07:06;;;;;;;8.50;2.28;;;20.70;67.70;;;;;;4991298;28;20129;-78
2022/09/05 08:09:44;;;;;;;3.45;2.08;;;20.90;67.30;;;;;;4984801;28;20064;-76
2022/09/05 08:12:25;;;;;;;3.17;1.85;;;21.00;67.00;;;;;;4986144;28;20092;-76
2022/09/05 08:15:07;;;;;;;2.97;2.10;;;21.30;66.40;;;;;;4982416;28;20569;-77
2022/09/05 08:17:40;;;;;;;5.25;2.10;;;21.40;66.00;;;;;;4971568;28;20269;-75
2022/09/05 08:20:32;;;;;;;4.40;2.15;;;21.60;65.70;;;;;;4983350;28;20061;-76
2022/09/05 08:23:28;;;;;;;4.10;2.38;;;21.80;65.30;;;;;;4969793;28;20034;-75
2022/09/05 08:26:09;;;;;;;2.03;1.63;;;22.10;64.80;;;;;;4993270;28;20037;-74
2022/09/05 08:28:44;;;;;;;3.40;1.70;;;22.30;64.40;;;;;;5002550;28;20098;-74
2022/09/05 08:31:13;;;;;;;3.92;1.80;;;22.60;64.00;;;;;;5001490;28;20065;-74
2022/09/05 08:33:38;;;;;;;4.18;1.92;;;22.80;63.60;;;;;;4990094;28;20125;-75
2022/09/05 08:36:39;;;;;;;3.65;1.75;;;23.10;63.20;;;;;;4987485;28;20117;-75
2022/09/05 08:39:05;;;;;;;2.45;1.70;;;23.30;62.40;;;;;;4984091;28;20038;-75
2022/09/05 08:41:41;;;;;;;5.95;1.73;;;23.50;62.10;;;;;;4955629;28;20177;-75
2022/09/05 08:44:35;;;;;;;5.50;1.88;;;23.70;61.30;;;;;;4977621;28;20038;-76
2022/09/05 08:47:19;;;;;;;3.80;2.20;;;23.80;60.50;;;;;;4982383;28;20128;-78
2022/09/05 08:50:17;;;;;;;3.75;2.03;;;24.10;60.00;;;;;;4984965;28;20061;-77
2022/09/05 08:52:48;;;;;;;3.80;1.48;;;24.20;59.70;;;;;;4977324;28;20046;-76
2022/09/05 08:55:38;;;;;;;4.35;1.58;;;24.50;59.60;;;;;;4975698;28;20066;-75
2022/09/05 08:58:11;;;;;;;3.13;1.88;;;24.80;59.10;;;;;;4954468;28;21401;-75
2022/09/05 09:00:43;;;;;;;5.22;1.50;;;25.00;59.00;;;;;;4958016;28;22505;-75
2022/09/05 09:03:20;;;;;;;3.97;1.60;;;25.20;58.60;;;;;;4950101;28;20594;-76
2022/09/05 09:05:54;;;;;;;3.80;1.40;;;25.50;58.10;;;;;;4974904;28;20222;-75
2022/09/05 09:08:46;;;;;;;4.68;1.80;;;25.70;57.60;;;;;;4981236;28;20038;-75
2022/09/05 09:11:24;;;;;;;2.08;1.48;;;25.90;57.10;;;;;;4981709;28;20878;-77
2022/09/05 09:14:25;;;;;;;5.38;1.90;;;26.20;57.00;;;;;;4954500;28;20104;-76
2022/09/05 09:17:06;;;;;;;2.95;1.58;;;26.50;56.30;;;;;;4978853;28;20037;-77
2022/09/05 09:20:08;;;;;;;6.55;1.40;;;26.80;55.50;;;;;;4984295;28;20100;-76
2022/09/05 09:22:42;;;;;;;2.67;1.27;;;27.00;55.30;;;;;;4978237;28;20042;-77
2022/09/05 09:25:10;;;;;;;3.80;1.65;;;27.20;55.20;;;;;;4978366;28;20120;-75
2022/09/05 09:27:55;;;;;;;1.95;1.60;;;27.50;54.80;;;;;;4996140;28;20073;-77
2022/09/05 09:30:20;;;;;;;3.70;1.50;;;27.70;54.90;;;;;;4992454;28;20129;-76
2022/09/05 09:32:48;;;;;;;5.57;1.50;;;27.90;53.60;;;;;;4977700;28;20822;-75
2022/09/05 09:35:25;;;;;;;2.75;1.55;;;28.00;53.10;;;;;;4994493;28;20116;-73
2022/09/05 09:38:12;;;;;;;4.20;1.48;;;28.20;52.80;;;;;;4977882;28;20030;-73
2022/09/05 09:40:42;;;;;;;3.75;1.50;;;28.50;52.10;;;;;;4993510;28;20052;-74
2022/09/05 09:43:29;;;;;;;7.18;1.40;;;28.70;51.90;;;;;;4977326;28;20120;-73
2022/09/05 09:46:10;;;;;;;3.58;1.40;;;29.00;51.30;;;;;;4975203;28;20042;-73
2022/09/05 09:49:01;;;;;;;3.25;1.45;;;29.20;50.90;;;;;;4974585;28;20046;-73
2022/09/05 09:51:42;;;;;;;4.10;1.70;;;29.40;50.90;;;;;;4970048;28;20037;-72
2022/09/05 09:54:11;;;;;;;;;;;29.50;50.00;;;;;;4973678;28;20134;-73
2022/09/05 09:57:05;;;;;;;1.98;1.10;;;29.70;50.30;;;;;;4986047;28;20013;-77
2022/09/05 09:59:52;;;;;;;4.35;1.60;;;29.90;49.70;;;;;;5001137;28;20046;-77
2022/09/05 10:02:55;;;;;;;5.00;1.33;;;30.30;48.80;;;;;;4984555;28;20576;-77
2022/09/05 10:05:26;;;;;;;5.28;1.45;;;30.40;48.10;;;;;;4983225;28;20454;-77
2022/09/05 10:08:10;;;;;;;1.38;1.10;;;30.70;48.20;;;;;;4984780;28;20046;-77
2022/09/05 10:14:15;;;;;;;1.30;0.98;;;31.10;46.70;;;;;;4993920;28;20367;-77
2022/09/05 10:16:48;;;;;;;1.00;0.82;;;31.40;46.70;;;;;;4971730;28;20305;-77
2022/09/05 10:19:32;;;;;;;1.17;0.90;;;31.60;46.40;;;;;;4986539;28;20161;-78
2022/09/05 10:22:19;;;;;;;1.10;0.90;;;31.80;45.10;;;;;;4973931;28;20034;-78
2022/09/05 10:25:25;;;;;;;2.70;1.00;;;32.10;44.80;;;;;;4992526;28;20034;-78
2022/09/05 10:28:06;;;;;;;2.00;1.20;;;32.30;43.70;;;;;;4980142;28;20049;-77
2022/09/05 10:30:38;;;;;;;;;;;32.40;43.60;;;;;;4971313;28;20035;-77
2022/09/05 10:33:42;;;;;;;0.80;0.80;;;32.50;44.30;;;;;;4969623;28;19946;-78
2022/09/05 10:36:20;;;;;;;0.98;0.80;;;32.60;42.50;;;;;;4973514;28;20068;-77
2022/09/05 10:38:50;;;;;;;1.13;0.82;;;32.70;42.60;;;;;;4967293;28;20094;-79
2022/09/05 10:41:18;;;;;;;3.53;0.88;;;32.70;42.70;;;;;;4950500;28;22578;-80
2022/09/05 10:43:51;;;;;;;2.22;1.08;;;32.90;42.60;;;;;;4972968;28;20050;-78
2022/09/05 10:46:48;;;;;;;0.82;0.70;;;32.90;41.90;;;;;;4979207;28;20038;-79
2022/09/05 10:49:14;;;;;;;0.80;0.80;;;33.10;40.60;;;;;;4990649;28;20048;-80
2022/09/05 10:51:51;;;;;;;1.08;0.82;;;33.30;41.30;;;;;;4989965;28;20045;-78
2022/09/05 10:54:36;;;;;;;2.33;0.70;;;33.50;40.90;;;;;;5003205;28;20041;-79
2022/09/05 10:57:02;;;;;;;1.25;0.63;;;33.70;40.20;;;;;;5004453;28;20049;-78
2022/09/05 10:59:49;;;;;;;4.13;0.80;;;33.80;40.30;;;;;;5021028;28;20045;-79
2022/09/05 11:02:18;;;;;;;1.05;0.80;;;33.80;39.70;;;;;;4966471;28;20046;-76
2022/09/05 11:04:47;;;;;;;0.80;0.70;;;34.00;39.30;;;;;;4998906;28;20030;-77
2022/09/05 11:07:52;;;;;;;1.00;0.63;;;34.20;38.90;;;;;;4999454;28;20039;-75
2022/09/05 11:10:42;;;;;;;0.70;0.70;;;34.50;37.90;;;;;;5016361;28;20018;-79
2022/09/05 11:13:44;;;;;;;1.30;0.90;;;34.70;37.50;;;;;;4985149;28;20042;-80
2022/09/05 11:16:37;;;;;;;1.35;0.70;;;35.00;37.90;;;;;;4991505;28;20093;-78
2022/09/05 11:19:11;;;;;;;1.15;0.75;;;35.20;36.90;;;;;;4977828;28;20026;-78
2022/09/05 11:21:39;;;;;;;3.05;0.80;;;35.30;37.30;;;;;;4968870;28;21816;-79
2022/09/05 11:24:11;;;;;;;0.82;0.70;;;35.40;37.10;;;;;;4983023;28;20037;-79
2022/09/05 11:26:46;;;;;;;1.33;0.82;;;35.30;36.70;;;;;;4985970;28;20034;-79
2022/09/05 11:29:14;;;;;;;2.90;0.98;;;35.40;36.60;;;;;;4969796;28;20417;-79
2022/09/05 11:32:13;;;;;;;0.75;0.70;;;35.50;36.20;;;;;;4997201;28;20518;-79
2022/09/05 11:35:03;;;;;;;0.70;0.70;;;35.60;35.20;;;;;;5013234;28;20552;-78
2022/09/05 11:37:38;;;;;;;0.70;0.70;;;35.80;35.00;;;;;;4985437;28;20034;-80
2022/09/05 11:40:18;;;;;;;1.42;1.00;;;36.00;34.80;;;;;;4979592;28;20037;-79
2022/09/05 11:42:47;;;;;;;2.10;0.90;;;36.20;33.90;;;;;;4997808;28;20026;-78
2022/09/05 11:45:31;;;;;;;1.27;0.80;;;36.30;34.50;;;;;;4990038;28;20042;-79
2022/09/05 11:48:20;;;;;;;1.27;0.82;;;36.30;33.00;;;;;;4982830;28;20097;-79
2022/09/05 11:51:12;;;;;;;0.90;0.90;;;36.50;33.00;;;;;;4998389;28;20038;-79
2022/09/05 11:54:06;;;;;;;0.63;0.60;;;36.70;32.70;;;;;;4990647;28;20044;-77
2022/09/05 11:56:42;;;;;;;2.47;1.10;;;36.80;32.30;;;;;;5015352;28;20053;-78
2022/09/05 11:59:45;;;;;;;1.48;0.90;;;36.90;32.20;;;;;;4995516;28;20029;-74
2022/09/05 12:02:48;;;;;;;0.70;0.70;;;37.00;31.30;;;;;;4989787;28;20237;-74
2022/09/05 12:05:51;;;;;;;1.30;0.80;;;37.20;31.10;;;;;;4970698;28;20406;-76
2022/09/05 12:08:21;;;;;;;0.80;0.65;;;37.20;30.90;;;;;;4974438;28;20038;-74
2022/09/05 12:11:08;;;;;;;1.70;0.88;;;37.30;31.80;;;;;;4968489;28;20040;-74
2022/09/05 12:13:53;;;;;;;1.40;0.90;;;37.40;30.60;;;;;;4964056;28;20046;-75
2022/09/05 12:16:43;;;;;;;5.45;0.90;;;37.60;31.30;;;;;;4960095;28;20030;-76
2022/09/05 12:19:25;;;;;;;1.70;0.68;;;37.80;31.10;;;;;;5001561;28;20057;-76
2022/09/05 12:22:15;;;;;;;2.35;0.90;;;37.90;30.40;;;;;;4988689;28;20038;-77
2022/09/05 12:25:05;;;;;;;1.53;0.67;;;38.00;30.10;;;;;;4964299;28;20054;-78
2022/09/05 12:27:32;;;;;;;0.60;0.60;;;38.20;30.00;;;;;;4994573;28;20361;-78
2022/09/05 12:29:58;;;;;;;0.95;0.80;;;38.20;30.60;;;;;;4984515;28;20092;-77
2022/09/05 12:32:26;;;;;;;0.60;0.60;;;38.10;30.20;;;;;;4953278;28;20282;-78
2022/09/05 12:34:56;;;;;;;0.60;0.60;;;38.00;30.00;;;;;;4987727;28;20034;-77
2022/09/05 12:37:21;;;;;;;0.73;0.73;;;38.10;29.90;;;;;;4959956;28;20038;-78
2022/09/05 12:40:10;;;;;;;1.15;0.77;;;38.20;29.90;;;;;;4993733;28;20038;-78
2022/09/05 12:42:43;;;;;;;0.63;0.63;;;38.20;29.40;;;;;;4973020;28;20044;-78
2022/09/05 12:45:17;;;;;;;3.85;0.88;;;38.10;29.60;;;;;;4981005;28;20030;-78
2022/09/05 12:47:56;;;;;;;1.30;0.80;;;38.00;29.40;;;;;;4986952;28;20089;-77
2022/09/05 12:50:39;;;;;;;1.02;0.73;;;38.00;29.20;;;;;;4978340;28;20046;-78
2022/09/05 12:53:07;;;;;;;2.53;0.80;;;38.10;29.50;;;;;;5005234;28;20101;-78
2022/09/05 12:55:37;;;;;;;1.55;0.90;;;38.10;29.40;;;;;;4963161;28;20580;-78
2022/09/05 12:58:12;;;;;;;1.48;0.60;;;38.20;29.40;;;;;;4966856;28;20041;-78
2022/09/05 13:00:44;;;;;;;2.05;0.90;;;38.30;29.20;;;;;;4973530;28;20117;-77
2022/09/05 13:03:41;;;;;;;1.23;0.52;;;38.30;29.10;;;;;;4993759;28;20031;-77
2022/09/05 13:06:13;;;;;;;1.25;0.63;;;38.50;28.80;;;;;;4985641;28;20097;-78
2022/09/05 13:08:46;;;;;;;0.70;0.70;;;38.60;29.10;;;;;;4972938;28;20065;-77
2022/09/05 13:11:14;;;;;;;1.05;0.50;;;38.70;28.80;;;;;;4962695;28;20533;-77
2022/09/05 13:14:04;;;;;;;5.05;0.82;;;38.70;28.90;;;;;;4977717;28;20049;-77
2022/09/05 13:16:30;;;;;;;2.10;0.90;;;38.60;28.10;;;;;;4957321;28;20033;-78
2022/09/05 13:19:05;;;;;;;1.80;0.60;;;38.40;29.30;;;;;;4973988;28;20034;-77
2022/09/05 13:21:31;;;;;;;2.80;0.77;;;38.30;28.60;;;;;;4952393;28;20046;-77
2022/09/05 13:24:00;;;;;;;2.50;0.90;;;38.20;28.70;;;;;;4981966;28;20049;-77
2022/09/05 13:26:36;;;;;;;2.35;0.75;;;38.30;28.70;;;;;;4988421;28;20034;-77
2022/09/05 13:29:11;;;;;;;2.13;0.93;;;38.20;28.20;;;;;;4973940;28;20035;-78
2022/09/05 13:31:39;;;;;;;1.98;0.80;;;38.30;28.50;;;;;;4981767;28;20034;-77
2022/09/05 13:34:17;;;;;;;0.77;0.70;;;38.40;28.50;;;;;;4994580;28;20030;-77
2022/09/05 13:37:16;;;;;;;1.38;0.57;;;38.50;28.60;;;;;;4982773;28;20085;-78
2022/09/05 13:39:46;;;;;;;2.78;0.75;;;38.60;28.30;;;;;;4989047;28;20042;-78
2022/09/05 13:42:17;;;;;;;0.88;0.70;;;38.70;28.40;;;;;;4963001;28;20034;-78
2022/09/05 13:44:45;;;;;;;1.00;0.85;;;38.70;28.30;;;;;;4981190;28;20034;-78
2022/09/05 13:47:19;;;;;;;3.28;0.70;;;38.60;28.80;;;;;;4985565;28;20065;-76
2022/09/05 13:50:18;;;;;;;3.05;0.90;;;38.60;28.20;;;;;;4985094;28;20077;-78
2022/09/05 13:53:08;;;;;;;0.70;0.70;;;38.60;28.00;;;;;;4996839;28;20118;-78
2022/09/05 13:55:33;;;;;;;1.00;0.90;;;38.60;28.00;;;;;;4987187;28;20034;-77
2022/09/05 13:58:06;;;;;;;0.85;0.80;;;38.60;28.20;;;;;;4988505;28;20049;-78